sensor_id;sensor_type;location;lat;lon;timestamp;P1;durP1;ratioP1;P2;durP2;ratioP2
67278;SDS011;54193;53.746;10.058;2023-05-07T00:02:29;12.68;;;5.10;;
67278;SDS011;54193;53.746;10.058;2023-05-07T00:05:14;13.77;;;6.10;;
67278;SDS011;54193;53.746;10.058;2023-05-07T00:08:01;11.43;;;6.30;;
67278;SDS011;54193;53.746;10.058;2023-05-07T00:10:47;20.23;;;8.65;;
67278;SDS011;54193;53.746;10.058;2023-05-07T00:13:33;13.00;;;6.63;;
67278;SDS011;54193;53.746;10.058;2023-05-07T00:16:20;20.55;;;10.55;;
67278;SDS011;54193;53.746;10.058;2023-05-07T00:19:06;11.15;;;4.45;;
67278;SDS011;54193;53.746;10.058;2023-05-07T00:21:52;22.73;;;13.77;;
67278;SDS011;54193;53.746;10.058;2023-05-07T00:24:39;14.23;;;7.07;;
67278;SDS011;54193;53.746;10.058;2023-05-07T00:27:24;20.17;;;9.88;;
67278;SDS011;54193;53.746;10.058;2023-05-07T00:30:10;14.70;;;6.15;;
67278;SDS011;54193;53.746;10.058;2023-05-07T00:32:56;21.40;;;10.65;;
67278;SDS011;54193;53.746;10.058;2023-05-07T00:35:42;11.57;;;5.07;;
67278;SDS011;54193;53.746;10.058;2023-05-07T00:38:28;20.70;;;10.68;;
67278;SDS011;54193;53.746;10.058;2023-05-07T00:41:13;12.77;;;5.90;;
67278;SDS011;54193;53.746;10.058;2023-05-07T00:43:59;17.70;;;7.28;;
67278;SDS011;54193;53.746;10.058;2023-05-07T00:46:45;13.75;;;6.88;;
67278;SDS011;54193;53.746;10.058;2023-05-07T00:49:43;20.00;;;10.73;;
67278;SDS011;54193;53.746;10.058;2023-05-07T00:52:29;14.88;;;6.72;;
67278;SDS011;54193;53.746;10.058;2023-05-07T00:55:15;18.90;;;8.65;;
67278;SDS011;54193;53.746;10.058;2023-05-07T00:58:01;13.57;;;6.00;;
67278;SDS011;54193;53.746;10.058;2023-05-07T01:00:46;20.40;;;11.63;;
67278;SDS011;54193;53.746;10.058;2023-05-07T01:03:32;15.70;;;6.65;;
67278;SDS011;54193;53.746;10.058;2023-05-07T01:06:18;18.42;;;9.15;;
67278;SDS011;54193;53.746;10.058;2023-05-07T01:09:06;19.70;;;9.43;;
67278;SDS011;54193;53.746;10.058;2023-05-07T01:11:52;19.48;;;9.77;;
67278;SDS011;54193;53.746;10.058;2023-05-07T01:14:39;13.57;;;6.05;;
67278;SDS011;54193;53.746;10.058;2023-05-07T01:17:25;17.93;;;9.10;;
67278;SDS011;54193;53.746;10.058;2023-05-07T01:20:11;9.48;;;4.85;;
67278;SDS011;54193;53.746;10.058;2023-05-07T01:22:57;19.95;;;9.40;;
67278;SDS011;54193;53.746;10.058;2023-05-07T01:25:42;22.02;;;10.95;;
67278;SDS011;54193;53.746;10.058;2023-05-07T01:28:28;18.17;;;7.57;;
67278;SDS011;54193;53.746;10.058;2023-05-07T01:31:14;16.85;;;8.48;;
67278;SDS011;54193;53.746;10.058;2023-05-07T01:34:01;20.30;;;9.57;;
67278;SDS011;54193;53.746;10.058;2023-05-07T01:36:49;28.20;;;15.07;;
67278;SDS011;54193;53.746;10.058;2023-05-07T01:39:35;22.75;;;13.13;;
67278;SDS011;54193;53.746;10.058;2023-05-07T01:42:23;21.10;;;12.05;;
67278;SDS011;54193;53.746;10.058;2023-05-07T01:45:09;17.13;;;9.33;;
67278;SDS011;54193;53.746;10.058;2023-05-07T01:47:55;20.13;;;10.60;;
67278;SDS011;54193;53.746;10.058;2023-05-07T01:50:43;22.60;;;12.77;;
67278;SDS011;54193;53.746;10.058;2023-05-07T01:53:34;18.38;;;10.13;;
67278;SDS011;54193;53.746;10.058;2023-05-07T01:56:21;21.23;;;11.45;;
67278;SDS011;54193;53.746;10.058;2023-05-07T01:59:07;15.45;;;6.32;;
67278;SDS011;54193;53.746;10.058;2023-05-07T02:01:52;17.67;;;7.45;;
67278;SDS011;54193;53.746;10.058;2023-05-07T02:04:38;13.63;;;6.57;;
67278;SDS011;54193;53.746;10.058;2023-05-07T02:07:23;22.75;;;11.48;;
67278;SDS011;54193;53.746;10.058;2023-05-07T02:10:09;12.90;;;5.63;;
67278;SDS011;54193;53.746;10.058;2023-05-07T02:12:55;15.30;;;7.07;;
67278;SDS011;54193;53.746;10.058;2023-05-07T02:15:41;8.63;;;4.15;;
67278;SDS011;54193;53.746;10.058;2023-05-07T02:18:26;15.75;;;7.30;;
67278;SDS011;54193;53.746;10.058;2023-05-07T02:21:12;18.40;;;7.47;;
67278;SDS011;54193;53.746;10.058;2023-05-07T02:23:57;16.48;;;6.97;;
67278;SDS011;54193;53.746;10.058;2023-05-07T02:26:43;20.98;;;11.38;;
67278;SDS011;54193;53.746;10.058;2023-05-07T02:29:29;21.60;;;10.43;;
67278;SDS011;54193;53.746;10.058;2023-05-07T02:32:15;17.27;;;8.90;;
67278;SDS011;54193;53.746;10.058;2023-05-07T02:35:00;27.15;;;15.23;;
67278;SDS011;54193;53.746;10.058;2023-05-07T02:37:46;20.45;;;9.63;;
67278;SDS011;54193;53.746;10.058;2023-05-07T02:40:32;21.90;;;11.80;;
67278;SDS011;54193;53.746;10.058;2023-05-07T02:43:18;20.50;;;10.10;;
67278;SDS011;54193;53.746;10.058;2023-05-07T02:46:05;21.90;;;12.15;;
67278;SDS011;54193;53.746;10.058;2023-05-07T02:48:51;21.45;;;12.13;;
67278;SDS011;54193;53.746;10.058;2023-05-07T02:51:37;11.70;;;5.95;;
67278;SDS011;54193;53.746;10.058;2023-05-07T02:54:23;13.73;;;6.50;;
67278;SDS011;54193;53.746;10.058;2023-05-07T02:57:08;13.52;;;6.40;;
67278;SDS011;54193;53.746;10.058;2023-05-07T02:59:54;22.73;;;11.63;;
67278;SDS011;54193;53.746;10.058;2023-05-07T03:02:40;16.63;;;7.55;;
67278;SDS011;54193;53.746;10.058;2023-05-07T03:05:25;18.48;;;10.30;;
67278;SDS011;54193;53.746;10.058;2023-05-07T03:08:11;26.30;;;15.13;;
67278;SDS011;54193;53.746;10.058;2023-05-07T03:10:57;9.88;;;5.10;;
67278;SDS011;54193;53.746;10.058;2023-05-07T03:13:42;19.05;;;10.95;;
67278;SDS011;54193;53.746;10.058;2023-05-07T03:16:28;19.45;;;9.18;;
67278;SDS011;54193;53.746;10.058;2023-05-07T03:19:14;19.73;;;9.10;;
67278;SDS011;54193;53.746;10.058;2023-05-07T03:21:59;11.45;;;5.15;;
67278;SDS011;54193;53.746;10.058;2023-05-07T03:24:45;19.90;;;9.68;;
67278;SDS011;54193;53.746;10.058;2023-05-07T03:27:30;20.00;;;9.63;;
67278;SDS011;54193;53.746;10.058;2023-05-07T03:30:16;10.77;;;5.35;;
67278;SDS011;54193;53.746;10.058;2023-05-07T03:33:02;21.38;;;11.18;;
67278;SDS011;54193;53.746;10.058;2023-05-07T03:35:47;15.87;;;8.47;;
67278;SDS011;54193;53.746;10.058;2023-05-07T03:38:33;19.80;;;10.20;;
67278;SDS011;54193;53.746;10.058;2023-05-07T03:41:19;17.75;;;8.50;;
67278;SDS011;54193;53.746;10.058;2023-05-07T03:44:05;16.17;;;6.95;;
67278;SDS011;54193;53.746;10.058;2023-05-07T03:46:51;24.00;;;13.45;;
67278;SDS011;54193;53.746;10.058;2023-05-07T03:49:36;16.48;;;8.73;;
67278;SDS011;54193;53.746;10.058;2023-05-07T03:52:22;14.68;;;7.00;;
67278;SDS011;54193;53.746;10.058;2023-05-07T03:55:11;14.57;;;8.07;;
67278;SDS011;54193;53.746;10.058;2023-05-07T03:57:56;17.25;;;8.25;;
67278;SDS011;54193;53.746;10.058;2023-05-07T04:00:42;16.15;;;6.57;;
67278;SDS011;54193;53.746;10.058;2023-05-07T04:03:27;13.83;;;6.53;;
67278;SDS011;54193;53.746;10.058;2023-05-07T04:06:15;16.67;;;9.55;;
67278;SDS011;54193;53.746;10.058;2023-05-07T04:09:01;15.80;;;8.43;;
67278;SDS011;54193;53.746;10.058;2023-05-07T04:11:46;19.40;;;6.30;;
67278;SDS011;54193;53.746;10.058;2023-05-07T04:14:32;21.35;;;10.02;;
67278;SDS011;54193;53.746;10.058;2023-05-07T04:17:18;15.15;;;6.72;;
67278;SDS011;54193;53.746;10.058;2023-05-07T04:20:03;15.70;;;8.13;;
67278;SDS011;54193;53.746;10.058;2023-05-07T04:22:50;11.87;;;5.20;;
67278;SDS011;54193;53.746;10.058;2023-05-07T04:25:35;15.90;;;6.78;;
67278;SDS011;54193;53.746;10.058;2023-05-07T04:28:21;13.27;;;7.30;;
67278;SDS011;54193;53.746;10.058;2023-05-07T04:31:06;8.67;;;4.17;;
67278;SDS011;54193;53.746;10.058;2023-05-07T04:33:52;9.10;;;4.50;;
67278;SDS011;54193;53.746;10.058;2023-05-07T04:36:38;12.80;;;6.13;;
67278;SDS011;54193;53.746;10.058;2023-05-07T04:39:24;11.48;;;5.05;;
67278;SDS011;54193;53.746;10.058;2023-05-07T04:42:09;13.63;;;6.85;;
67278;SDS011;54193;53.746;10.058;2023-05-07T04:45:01;21.13;;;11.18;;
67278;SDS011;54193;53.746;10.058;2023-05-07T04:47:47;14.25;;;6.13;;
67278;SDS011;54193;53.746;10.058;2023-05-07T04:50:33;15.23;;;8.10;;
67278;SDS011;54193;53.746;10.058;2023-05-07T04:53:19;13.30;;;5.88;;
67278;SDS011;54193;53.746;10.058;2023-05-07T04:56:05;16.67;;;7.40;;
67278;SDS011;54193;53.746;10.058;2023-05-07T04:58:51;15.50;;;7.03;;
67278;SDS011;54193;53.746;10.058;2023-05-07T05:01:36;10.70;;;3.72;;
67278;SDS011;54193;53.746;10.058;2023-05-07T05:04:22;13.57;;;6.20;;
67278;SDS011;54193;53.746;10.058;2023-05-07T05:07:07;12.05;;;5.75;;
67278;SDS011;54193;53.746;10.058;2023-05-07T05:09:53;13.32;;;6.50;;
67278;SDS011;54193;53.746;10.058;2023-05-07T05:12:39;20.10;;;11.55;;
67278;SDS011;54193;53.746;10.058;2023-05-07T05:15:24;12.68;;;6.05;;
67278;SDS011;54193;53.746;10.058;2023-05-07T05:18:10;15.03;;;6.27;;
67278;SDS011;54193;53.746;10.058;2023-05-07T05:20:56;16.15;;;8.82;;
67278;SDS011;54193;53.746;10.058;2023-05-07T05:23:41;17.83;;;7.50;;
67278;SDS011;54193;53.746;10.058;2023-05-07T05:26:27;10.67;;;4.93;;
67278;SDS011;54193;53.746;10.058;2023-05-07T05:29:13;17.02;;;7.75;;
67278;SDS011;54193;53.746;10.058;2023-05-07T05:31:58;15.00;;;5.63;;
67278;SDS011;54193;53.746;10.058;2023-05-07T05:34:44;11.95;;;5.35;;
67278;SDS011;54193;53.746;10.058;2023-05-07T05:37:30;14.25;;;6.70;;
67278;SDS011;54193;53.746;10.058;2023-05-07T05:40:16;13.27;;;5.38;;
67278;SDS011;54193;53.746;10.058;2023-05-07T05:43:02;13.15;;;6.47;;
67278;SDS011;54193;53.746;10.058;2023-05-07T05:45:47;11.60;;;5.73;;
67278;SDS011;54193;53.746;10.058;2023-05-07T05:48:33;11.75;;;6.00;;
67278;SDS011;54193;53.746;10.058;2023-05-07T05:51:20;12.60;;;6.03;;
67278;SDS011;54193;53.746;10.058;2023-05-07T05:54:06;20.77;;;11.17;;
67278;SDS011;54193;53.746;10.058;2023-05-07T05:56:51;13.88;;;6.68;;
67278;SDS011;54193;53.746;10.058;2023-05-07T05:59:37;12.77;;;5.95;;
67278;SDS011;54193;53.746;10.058;2023-05-07T06:02:23;13.48;;;8.02;;
67278;SDS011;54193;53.746;10.058;2023-05-07T06:05:08;11.75;;;5.55;;
67278;SDS011;54193;53.746;10.058;2023-05-07T06:07:54;13.52;;;6.40;;
67278;SDS011;54193;53.746;10.058;2023-05-07T06:10:40;16.08;;;9.85;;
67278;SDS011;54193;53.746;10.058;2023-05-07T06:13:25;7.47;;;3.37;;
67278;SDS011;54193;53.746;10.058;2023-05-07T06:16:11;7.00;;;3.17;;
67278;SDS011;54193;53.746;10.058;2023-05-07T06:18:57;10.63;;;5.43;;
67278;SDS011;54193;53.746;10.058;2023-05-07T06:21:42;10.00;;;4.80;;
67278;SDS011;54193;53.746;10.058;2023-05-07T06:24:28;7.22;;;3.83;;
67278;SDS011;54193;53.746;10.058;2023-05-07T06:27:14;8.82;;;4.47;;
67278;SDS011;54193;53.746;10.058;2023-05-07T06:29:59;10.07;;;5.00;;
67278;SDS011;54193;53.746;10.058;2023-05-07T06:32:45;12.90;;;8.32;;
67278;SDS011;54193;53.746;10.058;2023-05-07T06:35:31;12.02;;;6.22;;
67278;SDS011;54193;53.746;10.058;2023-05-07T06:38:16;9.02;;;4.55;;
67278;SDS011;54193;53.746;10.058;2023-05-07T06:41:02;11.33;;;5.53;;
67278;SDS011;54193;53.746;10.058;2023-05-07T06:43:48;11.15;;;5.57;;
67278;SDS011;54193;53.746;10.058;2023-05-07T06:46:34;14.20;;;9.20;;
67278;SDS011;54193;53.746;10.058;2023-05-07T06:49:19;6.17;;;3.60;;
67278;SDS011;54193;53.746;10.058;2023-05-07T06:52:05;8.70;;;5.07;;
67278;SDS011;54193;53.746;10.058;2023-05-07T06:54:51;10.85;;;5.72;;
67278;SDS011;54193;53.746;10.058;2023-05-07T06:57:37;11.18;;;6.47;;
67278;SDS011;54193;53.746;10.058;2023-05-07T07:00:23;8.27;;;4.72;;
67278;SDS011;54193;53.746;10.058;2023-05-07T07:03:09;12.38;;;6.47;;
67278;SDS011;54193;53.746;10.058;2023-05-07T07:05:55;10.63;;;5.65;;
67278;SDS011;54193;53.746;10.058;2023-05-07T07:08:40;11.60;;;5.40;;
67278;SDS011;54193;53.746;10.058;2023-05-07T07:11:26;8.88;;;3.78;;
67278;SDS011;54193;53.746;10.058;2023-05-07T07:14:11;8.68;;;4.93;;
67278;SDS011;54193;53.746;10.058;2023-05-07T07:16:58;11.17;;;6.53;;
67278;SDS011;54193;53.746;10.058;2023-05-07T07:19:43;11.43;;;6.25;;
67278;SDS011;54193;53.746;10.058;2023-05-07T07:22:29;12.60;;;7.90;;
67278;SDS011;54193;53.746;10.058;2023-05-07T07:25:15;15.02;;;8.40;;
67278;SDS011;54193;53.746;10.058;2023-05-07T07:28:00;12.15;;;5.63;;
67278;SDS011;54193;53.746;10.058;2023-05-07T07:30:46;12.00;;;8.43;;
67278;SDS011;54193;53.746;10.058;2023-05-07T07:33:32;12.07;;;7.20;;
67278;SDS011;54193;53.746;10.058;2023-05-07T07:36:18;11.70;;;6.07;;
67278;SDS011;54193;53.746;10.058;2023-05-07T07:39:03;9.20;;;5.05;;
67278;SDS011;54193;53.746;10.058;2023-05-07T07:41:49;11.60;;;6.20;;
67278;SDS011;54193;53.746;10.058;2023-05-07T07:44:35;10.67;;;5.73;;
67278;SDS011;54193;53.746;10.058;2023-05-07T07:47:20;13.52;;;8.63;;
67278;SDS011;54193;53.746;10.058;2023-05-07T07:50:07;13.75;;;7.45;;
67278;SDS011;54193;53.746;10.058;2023-05-07T07:52:53;11.07;;;6.53;;
67278;SDS011;54193;53.746;10.058;2023-05-07T07:55:40;9.53;;;4.83;;
67278;SDS011;54193;53.746;10.058;2023-05-07T07:58:26;11.98;;;7.30;;
67278;SDS011;54193;53.746;10.058;2023-05-07T08:01:11;9.30;;;5.35;;
67278;SDS011;54193;53.746;10.058;2023-05-07T08:03:58;10.63;;;6.63;;
67278;SDS011;54193;53.746;10.058;2023-05-07T08:06:44;8.63;;;4.88;;
67278;SDS011;54193;53.746;10.058;2023-05-07T08:09:29;11.80;;;6.45;;
67278;SDS011;54193;53.746;10.058;2023-05-07T08:12:15;9.70;;;5.55;;
67278;SDS011;54193;53.746;10.058;2023-05-07T08:15:01;6.95;;;3.50;;
67278;SDS011;54193;53.746;10.058;2023-05-07T08:17:46;8.30;;;4.18;;
67278;SDS011;54193;53.746;10.058;2023-05-07T08:20:32;7.55;;;4.15;;
67278;SDS011;54193;53.746;10.058;2023-05-07T08:23:18;10.73;;;6.50;;
67278;SDS011;54193;53.746;10.058;2023-05-07T08:26:04;8.15;;;4.25;;
67278;SDS011;54193;53.746;10.058;2023-05-07T08:28:50;11.70;;;7.50;;
67278;SDS011;54193;53.746;10.058;2023-05-07T08:31:36;8.10;;;4.57;;
67278;SDS011;54193;53.746;10.058;2023-05-07T08:34:22;12.38;;;6.22;;
67278;SDS011;54193;53.746;10.058;2023-05-07T08:37:08;10.60;;;6.57;;
67278;SDS011;54193;53.746;10.058;2023-05-07T08:39:53;12.07;;;7.18;;
67278;SDS011;54193;53.746;10.058;2023-05-07T08:42:39;8.60;;;4.32;;
67278;SDS011;54193;53.746;10.058;2023-05-07T08:45:25;8.85;;;5.28;;
67278;SDS011;54193;53.746;10.058;2023-05-07T08:48:16;8.18;;;4.82;;
67278;SDS011;54193;53.746;10.058;2023-05-07T08:51:02;11.57;;;6.97;;
67278;SDS011;54193;53.746;10.058;2023-05-07T08:53:48;9.60;;;4.40;;
67278;SDS011;54193;53.746;10.058;2023-05-07T08:56:35;10.48;;;6.35;;
67278;SDS011;54193;53.746;10.058;2023-05-07T08:59:21;12.38;;;6.75;;
67278;SDS011;54193;53.746;10.058;2023-05-07T09:02:06;12.55;;;9.35;;
67278;SDS011;54193;53.746;10.058;2023-05-07T09:04:55;6.75;;;3.20;;
67278;SDS011;54193;53.746;10.058;2023-05-07T09:07:40;6.80;;;3.83;;
67278;SDS011;54193;53.746;10.058;2023-05-07T09:10:26;6.80;;;4.33;;
67278;SDS011;54193;53.746;10.058;2023-05-07T09:13:12;11.73;;;4.88;;
67278;SDS011;54193;53.746;10.058;2023-05-07T09:16:09;8.50;;;4.15;;
67278;SDS011;54193;53.746;10.058;2023-05-07T09:18:57;7.43;;;4.10;;
67278;SDS011;54193;53.746;10.058;2023-05-07T09:21:43;6.82;;;3.20;;
67278;SDS011;54193;53.746;10.058;2023-05-07T09:24:29;7.00;;;3.70;;
67278;SDS011;54193;53.746;10.058;2023-05-07T09:27:20;8.52;;;4.13;;
67278;SDS011;54193;53.746;10.058;2023-05-07T09:30:06;9.75;;;5.63;;
67278;SDS011;54193;53.746;10.058;2023-05-07T09:32:52;12.38;;;6.63;;
67278;SDS011;54193;53.746;10.058;2023-05-07T09:35:38;8.73;;;5.15;;
67278;SDS011;54193;53.746;10.058;2023-05-07T09:38:24;7.60;;;4.50;;
67278;SDS011;54193;53.746;10.058;2023-05-07T09:41:11;8.10;;;3.37;;
67278;SDS011;54193;53.746;10.058;2023-05-07T09:43:57;9.55;;;6.35;;
67278;SDS011;54193;53.746;10.058;2023-05-07T09:46:43;7.25;;;4.25;;
67278;SDS011;54193;53.746;10.058;2023-05-07T09:49:33;8.07;;;3.77;;
67278;SDS011;54193;53.746;10.058;2023-05-07T09:52:21;7.78;;;4.60;;
67278;SDS011;54193;53.746;10.058;2023-05-07T09:55:07;8.55;;;4.63;;
67278;SDS011;54193;53.746;10.058;2023-05-07T09:57:54;7.78;;;4.13;;
67278;SDS011;54193;53.746;10.058;2023-05-07T10:00:40;7.20;;;3.92;;
67278;SDS011;54193;53.746;10.058;2023-05-07T10:03:27;7.65;;;3.38;;
67278;SDS011;54193;53.746;10.058;2023-05-07T10:06:17;4.38;;;2.63;;
67278;SDS011;54193;53.746;10.058;2023-05-07T10:09:03;9.33;;;4.47;;
67278;SDS011;54193;53.746;10.058;2023-05-07T10:11:53;8.23;;;4.82;;
67278;SDS011;54193;53.746;10.058;2023-05-07T10:14:39;5.47;;;2.53;;
67278;SDS011;54193;53.746;10.058;2023-05-07T10:17:25;6.97;;;3.47;;
67278;SDS011;54193;53.746;10.058;2023-05-07T10:20:11;6.30;;;3.45;;
67278;SDS011;54193;53.746;10.058;2023-05-07T10:22:57;8.45;;;5.68;;
67278;SDS011;54193;53.746;10.058;2023-05-07T10:25:43;8.55;;;5.22;;
67278;SDS011;54193;53.746;10.058;2023-05-07T10:28:30;7.33;;;4.50;;
67278;SDS011;54193;53.746;10.058;2023-05-07T10:34:28;6.50;;;3.30;;
67278;SDS011;54193;53.746;10.058;2023-05-07T10:37:17;7.63;;;4.57;;
67278;SDS011;54193;53.746;10.058;2023-05-07T10:40:03;7.50;;;4.65;;
67278;SDS011;54193;53.746;10.058;2023-05-07T10:43:01;9.32;;;6.32;;
67278;SDS011;54193;53.746;10.058;2023-05-07T10:51:47;7.63;;;3.88;;
67278;SDS011;54193;53.746;10.058;2023-05-07T10:58:22;9.73;;;5.23;;
67278;SDS011;54193;53.746;10.058;2023-05-07T11:01:11;7.68;;;4.40;;
67278;SDS011;54193;53.746;10.058;2023-05-07T11:04:14;7.35;;;3.65;;
67278;SDS011;54193;53.746;10.058;2023-05-07T11:09:58;6.85;;;3.92;;
67278;SDS011;54193;53.746;10.058;2023-05-07T11:12:50;6.30;;;4.07;;
67278;SDS011;54193;53.746;10.058;2023-05-07T11:15:38;6.13;;;3.28;;
67278;SDS011;54193;53.746;10.058;2023-05-07T11:18:25;6.67;;;3.80;;
67278;SDS011;54193;53.746;10.058;2023-05-07T11:21:41;5.68;;;2.92;;
67278;SDS011;54193;53.746;10.058;2023-05-07T11:24:27;6.05;;;3.38;;
67278;SDS011;54193;53.746;10.058;2023-05-07T11:27:13;5.70;;;2.55;;
67278;SDS011;54193;53.746;10.058;2023-05-07T11:29:59;5.53;;;3.43;;
67278;SDS011;54193;53.746;10.058;2023-05-07T11:32:47;7.50;;;4.80;;
67278;SDS011;54193;53.746;10.058;2023-05-07T11:35:33;8.75;;;5.30;;
67278;SDS011;54193;53.746;10.058;2023-05-07T11:38:19;6.57;;;2.85;;
67278;SDS011;54193;53.746;10.058;2023-05-07T11:41:06;5.18;;;2.95;;
67278;SDS011;54193;53.746;10.058;2023-05-07T11:43:56;5.93;;;3.88;;
67278;SDS011;54193;53.746;10.058;2023-05-07T11:46:43;5.85;;;3.15;;
67278;SDS011;54193;53.746;10.058;2023-05-07T11:49:32;5.60;;;3.40;;
67278;SDS011;54193;53.746;10.058;2023-05-07T11:52:20;6.00;;;3.58;;
67278;SDS011;54193;53.746;10.058;2023-05-07T11:55:08;7.68;;;3.85;;
67278;SDS011;54193;53.746;10.058;2023-05-07T11:57:53;6.25;;;3.83;;
67278;SDS011;54193;53.746;10.058;2023-05-07T12:00:39;5.63;;;3.47;;
67278;SDS011;54193;53.746;10.058;2023-05-07T12:03:33;5.32;;;2.63;;
67278;SDS011;54193;53.746;10.058;2023-05-07T12:06:19;4.68;;;2.40;;
67278;SDS011;54193;53.746;10.058;2023-05-07T12:09:05;4.32;;;2.28;;
67278;SDS011;54193;53.746;10.058;2023-05-07T12:11:52;3.73;;;2.20;;
67278;SDS011;54193;53.746;10.058;2023-05-07T12:14:39;6.20;;;3.22;;
67278;SDS011;54193;53.746;10.058;2023-05-07T12:17:25;5.80;;;3.25;;
67278;SDS011;54193;53.746;10.058;2023-05-07T12:20:11;5.43;;;2.60;;
67278;SDS011;54193;53.746;10.058;2023-05-07T12:22:57;4.53;;;2.37;;
67278;SDS011;54193;53.746;10.058;2023-05-07T12:25:43;5.07;;;2.75;;
67278;SDS011;54193;53.746;10.058;2023-05-07T12:28:36;6.03;;;3.40;;
67278;SDS011;54193;53.746;10.058;2023-05-07T12:31:23;7.22;;;3.22;;
67278;SDS011;54193;53.746;10.058;2023-05-07T12:34:11;5.35;;;3.30;;
67278;SDS011;54193;53.746;10.058;2023-05-07T12:36:57;5.90;;;3.03;;
67278;SDS011;54193;53.746;10.058;2023-05-07T12:40:33;9.38;;;3.10;;
67278;SDS011;54193;53.746;10.058;2023-05-07T12:42:52;5.07;;;2.80;;
67278;SDS011;54193;53.746;10.058;2023-05-07T12:45:41;6.43;;;3.35;;
67278;SDS011;54193;53.746;10.058;2023-05-07T12:48:27;5.13;;;2.83;;
67278;SDS011;54193;53.746;10.058;2023-05-07T12:51:13;5.75;;;2.78;;
67278;SDS011;54193;53.746;10.058;2023-05-07T12:54:00;4.47;;;2.70;;
67278;SDS011;54193;53.746;10.058;2023-05-07T12:56:45;3.90;;;2.17;;
67278;SDS011;54193;53.746;10.058;2023-05-07T12:59:38;6.38;;;3.20;;
67278;SDS011;54193;53.746;10.058;2023-05-07T13:02:31;6.03;;;4.20;;
67278;SDS011;54193;53.746;10.058;2023-05-07T13:05:18;4.90;;;2.53;;
67278;SDS011;54193;53.746;10.058;2023-05-07T13:08:04;4.50;;;2.88;;
67278;SDS011;54193;53.746;10.058;2023-05-07T13:10:49;5.55;;;2.97;;
67278;SDS011;54193;53.746;10.058;2023-05-07T13:13:35;4.13;;;2.35;;
67278;SDS011;54193;53.746;10.058;2023-05-07T13:16:22;4.63;;;2.63;;
67278;SDS011;54193;53.746;10.058;2023-05-07T13:19:07;4.30;;;2.83;;
67278;SDS011;54193;53.746;10.058;2023-05-07T13:21:53;4.05;;;2.05;;
67278;SDS011;54193;53.746;10.058;2023-05-07T13:24:38;3.65;;;1.75;;
67278;SDS011;54193;53.746;10.058;2023-05-07T13:27:26;5.30;;;2.77;;
67278;SDS011;54193;53.746;10.058;2023-05-07T13:30:12;5.07;;;2.50;;
67278;SDS011;54193;53.746;10.058;2023-05-07T13:32:58;4.35;;;2.97;;
67278;SDS011;54193;53.746;10.058;2023-05-07T13:35:44;4.50;;;2.92;;
67278;SDS011;54193;53.746;10.058;2023-05-07T13:38:30;4.13;;;2.30;;
67278;SDS011;54193;53.746;10.058;2023-05-07T13:41:15;4.50;;;2.13;;
67278;SDS011;54193;53.746;10.058;2023-05-07T13:44:01;4.35;;;2.95;;
67278;SDS011;54193;53.746;10.058;2023-05-07T13:46:46;3.42;;;1.75;;
67278;SDS011;54193;53.746;10.058;2023-05-07T13:49:32;5.50;;;2.60;;
67278;SDS011;54193;53.746;10.058;2023-05-07T13:52:18;5.25;;;2.88;;
67278;SDS011;54193;53.746;10.058;2023-05-07T13:55:04;5.38;;;2.90;;
67278;SDS011;54193;53.746;10.058;2023-05-07T13:57:56;4.95;;;2.70;;
67278;SDS011;54193;53.746;10.058;2023-05-07T14:00:43;4.00;;;2.50;;
67278;SDS011;54193;53.746;10.058;2023-05-07T14:03:28;3.80;;;2.20;;
67278;SDS011;54193;53.746;10.058;2023-05-07T14:06:17;5.57;;;2.78;;
67278;SDS011;54193;53.746;10.058;2023-05-07T14:09:02;4.82;;;2.40;;
67278;SDS011;54193;53.746;10.058;2023-05-07T14:11:48;3.97;;;2.00;;
67278;SDS011;54193;53.746;10.058;2023-05-07T14:14:36;5.13;;;3.08;;
67278;SDS011;54193;53.746;10.058;2023-05-07T14:17:22;3.15;;;1.70;;
67278;SDS011;54193;53.746;10.058;2023-05-07T14:20:10;4.95;;;3.10;;
67278;SDS011;54193;53.746;10.058;2023-05-07T14:22:56;4.30;;;2.00;;
67278;SDS011;54193;53.746;10.058;2023-05-07T14:25:42;4.18;;;2.08;;
67278;SDS011;54193;53.746;10.058;2023-05-07T14:28:28;4.45;;;2.63;;
67278;SDS011;54193;53.746;10.058;2023-05-07T14:31:14;3.95;;;2.30;;
67278;SDS011;54193;53.746;10.058;2023-05-07T14:34:00;3.40;;;1.60;;
67278;SDS011;54193;53.746;10.058;2023-05-07T14:36:45;4.40;;;2.08;;
67278;SDS011;54193;53.746;10.058;2023-05-07T14:39:31;3.83;;;1.90;;
67278;SDS011;54193;53.746;10.058;2023-05-07T14:42:17;5.65;;;2.13;;
67278;SDS011;54193;53.746;10.058;2023-05-07T14:45:03;3.77;;;1.97;;
67278;SDS011;54193;53.746;10.058;2023-05-07T14:47:49;3.40;;;2.20;;
67278;SDS011;54193;53.746;10.058;2023-05-07T14:50:34;4.13;;;2.28;;
67278;SDS011;54193;53.746;10.058;2023-05-07T14:53:20;4.75;;;2.92;;
67278;SDS011;54193;53.746;10.058;2023-05-07T14:56:06;4.60;;;2.83;;
67278;SDS011;54193;53.746;10.058;2023-05-07T14:58:51;6.03;;;2.85;;
67278;SDS011;54193;53.746;10.058;2023-05-07T15:01:37;3.38;;;1.98;;
67278;SDS011;54193;53.746;10.058;2023-05-07T15:04:23;3.40;;;1.65;;
67278;SDS011;54193;53.746;10.058;2023-05-07T15:07:09;3.75;;;2.10;;
67278;SDS011;54193;53.746;10.058;2023-05-07T15:09:55;3.97;;;2.13;;
67278;SDS011;54193;53.746;10.058;2023-05-07T15:12:41;4.50;;;2.35;;
67278;SDS011;54193;53.746;10.058;2023-05-07T15:15:27;5.70;;;2.85;;
67278;SDS011;54193;53.746;10.058;2023-05-07T15:18:13;3.70;;;1.80;;
67278;SDS011;54193;53.746;10.058;2023-05-07T15:20:59;3.83;;;2.08;;
67278;SDS011;54193;53.746;10.058;2023-05-07T15:23:45;4.50;;;2.47;;
67278;SDS011;54193;53.746;10.058;2023-05-07T15:26:31;4.35;;;2.53;;
67278;SDS011;54193;53.746;10.058;2023-05-07T15:29:16;4.43;;;3.03;;
67278;SDS011;54193;53.746;10.058;2023-05-07T15:32:02;4.97;;;2.92;;
67278;SDS011;54193;53.746;10.058;2023-05-07T15:34:48;5.50;;;3.35;;
67278;SDS011;54193;53.746;10.058;2023-05-07T15:37:33;5.33;;;2.57;;
67278;SDS011;54193;53.746;10.058;2023-05-07T15:40:19;3.50;;;1.70;;
67278;SDS011;54193;53.746;10.058;2023-05-07T15:43:05;3.97;;;2.08;;
67278;SDS011;54193;53.746;10.058;2023-05-07T15:45:50;4.47;;;2.80;;
67278;SDS011;54193;53.746;10.058;2023-05-07T15:48:36;4.70;;;2.60;;
67278;SDS011;54193;53.746;10.058;2023-05-07T15:51:22;4.60;;;2.30;;
67278;SDS011;54193;53.746;10.058;2023-05-07T15:54:07;4.43;;;2.28;;
67278;SDS011;54193;53.746;10.058;2023-05-07T15:56:53;4.17;;;1.93;;
67278;SDS011;54193;53.746;10.058;2023-05-07T15:59:39;4.05;;;1.90;;
67278;SDS011;54193;53.746;10.058;2023-05-07T16:02:24;4.93;;;2.95;;
67278;SDS011;54193;53.746;10.058;2023-05-07T16:05:11;4.65;;;2.72;;
67278;SDS011;54193;53.746;10.058;2023-05-07T16:07:57;4.57;;;2.00;;
67278;SDS011;54193;53.746;10.058;2023-05-07T16:10:44;4.15;;;2.30;;
67278;SDS011;54193;53.746;10.058;2023-05-07T16:13:30;4.10;;;2.22;;
67278;SDS011;54193;53.746;10.058;2023-05-07T16:16:15;3.45;;;1.70;;
67278;SDS011;54193;53.746;10.058;2023-05-07T16:19:01;4.10;;;2.40;;
67278;SDS011;54193;53.746;10.058;2023-05-07T16:21:46;4.78;;;2.92;;
67278;SDS011;54193;53.746;10.058;2023-05-07T16:24:32;4.63;;;2.38;;
67278;SDS011;54193;53.746;10.058;2023-05-07T16:27:18;4.03;;;2.53;;
67278;SDS011;54193;53.746;10.058;2023-05-07T16:30:03;4.83;;;2.50;;
67278;SDS011;54193;53.746;10.058;2023-05-07T16:32:50;5.03;;;2.50;;
67278;SDS011;54193;53.746;10.058;2023-05-07T16:35:35;5.07;;;2.65;;